createdAt,value
2019-01-14T00:04:29.189Z,4.93
2019-01-14T00:09:33.787Z,5.03
2019-01-14T00:14:37.956Z,4.60
2019-01-14T00:19:42.667Z,4.47
2019-01-14T00:24:47.061Z,4.90
2019-01-14T00:29:51.465Z,4.23
2019-01-14T00:34:56.184Z,4.80
2019-01-14T00:40:00.574Z,4.00
2019-01-14T00:45:05.528Z,4.00
2019-01-14T00:50:12.228Z,5.13
2019-01-14T00:55:16.297Z,3.80
2019-01-14T01:00:23.460Z,4.10
2019-01-14T01:05:27.918Z,2.73
2019-01-14T01:10:32.386Z,1.97
2019-01-14T01:15:36.807Z,2.30
2019-01-14T01:20:40.954Z,1.93
2019-01-14T01:25:45.320Z,1.77
2019-01-14T01:30:49.418Z,2.02
2019-01-14T01:35:53.469Z,2.87
2019-01-14T01:40:57.816Z,3.23
2019-01-14T01:46:01.918Z,4.17
2019-01-14T01:51:06.323Z,4.90
2019-01-14T01:56:10.721Z,4.63
2019-01-14T02:01:15.090Z,6.07
2019-01-14T02:06:19.443Z,5.90
2019-01-14T02:11:24.111Z,5.33
2019-01-14T02:16:28.517Z,6.10
2019-01-14T02:21:32.908Z,6.90
2019-01-14T02:26:37.300Z,6.10
2019-01-14T02:31:41.750Z,5.40
2019-01-14T02:36:48.522Z,5.53
2019-01-14T02:41:52.512Z,6.27
2019-01-14T02:46:56.614Z,6.10
2019-01-14T02:52:00.999Z,5.53
2019-01-14T02:57:05.349Z,6.07
2019-01-14T03:02:09.779Z,4.40
2019-01-14T03:07:14.120Z,4.90
2019-01-14T03:12:18.222Z,5.03
2019-01-14T03:17:22.612Z,4.80
2019-01-14T03:22:27.001Z,4.60
2019-01-14T03:27:31.091Z,4.50
2019-01-14T03:32:35.459Z,4.10
2019-01-14T03:37:40.618Z,4.90
2019-01-14T03:42:44.724Z,5.23
2019-01-14T03:47:48.790Z,4.97
2019-01-14T03:52:53.212Z,4.83
2019-01-14T03:57:57.317Z,5.43
2019-01-14T04:03:01.622Z,5.43
2019-01-14T04:08:05.990Z,5.70
2019-01-14T04:13:11.920Z,6.10
2019-01-14T04:18:16.310Z,6.23
2019-01-14T04:23:20.425Z,6.00
2019-01-14T04:28:24.766Z,6.33
2019-01-14T04:33:29.430Z,5.97
2019-01-14T04:38:33.802Z,5.73
2019-01-14T04:43:38.157Z,4.40
2019-01-14T04:48:42.540Z,3.60
2019-01-14T04:53:46.880Z,3.63
2019-01-14T04:58:50.945Z,3.43
2019-01-14T05:03:55.544Z,3.47
2019-01-14T05:08:59.935Z,3.03
2019-01-14T05:14:04.751Z,2.87
2019-01-14T05:19:09.137Z,2.80
2019-01-14T05:24:13.229Z,2.67
2019-01-14T05:29:17.581Z,2.60
2019-01-14T05:34:21.954Z,2.63
2019-01-14T05:39:26.059Z,2.80
2019-01-14T05:44:30.399Z,2.53
2019-01-14T05:49:34.802Z,3.30
2019-01-14T05:54:39.177Z,2.23
2019-01-14T05:59:43.609Z,2.27
2019-01-14T06:04:47.728Z,2.60
2019-01-14T06:09:52.065Z,2.60
2019-01-14T06:14:56.459Z,2.50
2019-01-14T06:20:01.584Z,3.00
2019-01-14T06:25:10.319Z,3.47
2019-01-14T06:30:27.370Z,3.40
2019-01-14T06:35:31.777Z,4.00
2019-01-14T06:40:36.146Z,3.93
2019-01-14T06:45:40.244Z,4.33
2019-01-14T06:50:44.310Z,6.90
2019-01-14T06:55:48.667Z,4.75
2019-01-14T07:00:53.307Z,5.20
2019-01-14T07:05:57.410Z,5.47
2019-01-14T07:11:01.736Z,6.73
2019-01-14T07:16:06.517Z,6.50
2019-01-14T07:21:10.899Z,5.77
2019-01-14T07:26:15.285Z,5.40
2019-01-14T07:31:19.454Z,5.20
2019-01-14T07:36:23.865Z,6.30
2019-01-14T07:41:27.997Z,6.73
2019-01-14T07:46:32.374Z,5.77
2019-01-14T07:51:36.727Z,6.20
2019-01-14T07:56:41.881Z,6.10
2019-01-14T08:01:45.936Z,6.07
2019-01-14T08:06:50.283Z,5.63
2019-01-14T08:11:54.380Z,5.50
2019-01-14T08:16:58.779Z,5.17
2019-01-14T08:22:03.310Z,5.80
2019-01-14T08:27:07.742Z,5.10
2019-01-14T08:32:11.847Z,4.20
2019-01-14T08:37:15.941Z,4.23
2019-01-14T08:42:20.880Z,4.70
2019-01-14T08:47:24.981Z,3.37
2019-01-14T08:52:29.029Z,2.57
2019-01-14T08:57:33.380Z,2.50
2019-01-14T09:02:37.827Z,2.43
2019-01-14T09:07:42.192Z,3.07
2019-01-14T09:12:46.517Z,2.72
2019-01-14T09:17:50.773Z,2.10
2019-01-14T09:22:54.825Z,2.03
2019-01-14T09:27:58.879Z,1.83
2019-01-14T09:33:03.008Z,1.90
2019-01-14T09:38:07.053Z,2.70
2019-01-14T09:43:11.661Z,2.97
2019-01-14T09:48:15.754Z,2.83
2019-01-14T09:53:20.092Z,2.73
2019-01-14T09:58:24.430Z,2.90
2019-01-14T10:03:28.498Z,2.87
2019-01-14T10:08:33.141Z,3.30
2019-01-14T10:13:37.555Z,3.03
2019-01-14T10:18:41.652Z,2.73
2019-01-14T10:23:45.709Z,2.67
2019-01-14T10:28:49.758Z,3.10
2019-01-14T10:33:53.808Z,3.40
2019-01-14T10:38:58.159Z,4.77
2019-01-14T10:44:02.250Z,6.20
2019-01-14T10:49:07.125Z,8.05
2019-01-14T10:54:11.562Z,6.27
2019-01-14T10:59:15.945Z,5.80
2019-01-14T11:04:20.046Z,5.30
2019-01-14T11:09:24.668Z,4.73
2019-01-14T11:14:28.765Z,4.57
2019-01-14T11:19:33.111Z,4.87
2019-01-14T11:24:49.593Z,4.33
2019-01-14T11:29:53.717Z,4.10
2019-01-14T11:34:58.099Z,4.80
2019-01-14T11:40:04.259Z,4.17
2019-01-14T11:45:11.557Z,4.60
2019-01-14T11:50:17.441Z,3.77
2019-01-14T11:55:21.489Z,2.00
2019-01-14T12:00:27.246Z,2.07
2019-01-14T12:05:31.337Z,2.00
2019-01-14T12:10:35.401Z,2.17
2019-01-14T12:15:40.081Z,2.12
2019-01-14T12:20:44.454Z,2.10
2019-01-14T12:25:48.812Z,2.10
2019-01-14T12:30:53.143Z,2.30
2019-01-14T12:35:57.198Z,2.10
2019-01-14T12:41:01.252Z,2.30
2019-01-14T12:46:05.740Z,2.00
2019-01-14T12:51:10.087Z,2.40
2019-01-14T12:56:14.997Z,2.20
2019-01-14T13:01:19.619Z,2.10
2019-01-14T13:06:24.083Z,2.10
2019-01-14T13:11:28.468Z,2.30
2019-01-14T13:16:32.891Z,2.10
2019-01-14T13:21:37.483Z,2.33
2019-01-14T13:26:41.869Z,2.70
2019-01-14T13:31:46.578Z,2.30
2019-01-14T13:36:51.317Z,2.40
2019-01-14T13:41:55.415Z,2.40
2019-01-14T13:46:59.469Z,2.30
2019-01-14T13:52:03.527Z,2.63
2019-01-14T13:57:07.869Z,2.60
2019-01-14T14:02:12.257Z,2.70
2019-01-14T14:07:16.351Z,2.03
2019-01-14T14:12:20.405Z,2.37
2019-01-14T14:17:24.752Z,2.40
2019-01-14T14:22:29.133Z,2.35
2019-01-14T14:27:33.514Z,2.43
2019-01-14T14:32:37.684Z,2.10
2019-01-14T14:37:42.015Z,2.80
2019-01-14T14:42:46.668Z,2.70
2019-01-14T14:47:51.310Z,2.67
2019-01-14T14:52:55.420Z,2.73
2019-01-14T14:57:59.474Z,2.95
2019-01-14T15:03:04.058Z,2.70
2019-01-14T15:08:08.398Z,3.30
2019-01-14T15:13:12.786Z,2.20
2019-01-14T15:18:17.174Z,2.70
2019-01-14T15:23:21.650Z,2.50
2019-01-14T15:28:25.743Z,2.87
2019-01-14T15:33:30.176Z,2.73
2019-01-14T15:38:34.631Z,2.40
2019-01-14T15:43:39.270Z,2.42
2019-01-14T15:48:43.409Z,2.20
2019-01-14T15:53:47.628Z,2.70
2019-01-14T15:58:53.923Z,2.45
2019-01-14T16:03:58.359Z,2.70
2019-01-14T16:09:02.847Z,2.90
2019-01-14T16:14:07.307Z,2.27
2019-01-14T16:19:11.456Z,2.50
2019-01-14T16:24:15.556Z,2.47
2019-01-14T16:29:20.483Z,2.40
2019-01-14T16:34:24.903Z,2.20
2019-01-14T16:39:29.339Z,2.10
2019-01-14T16:44:33.481Z,2.67
2019-01-14T16:54:43.434Z,3.10
2019-01-14T16:59:47.529Z,3.47
2019-01-14T17:04:51.865Z,3.50
2019-01-14T17:09:56.266Z,5.90
2019-01-14T17:15:00.634Z,4.50
2019-01-14T17:20:14.453Z,3.70
2019-01-14T17:25:19.078Z,3.40
2019-01-14T17:30:23.759Z,2.70
2019-01-14T17:35:28.241Z,2.87
2019-01-14T17:40:32.906Z,3.43
2019-01-14T17:45:37.369Z,3.10
2019-01-14T17:50:41.455Z,4.43
2019-01-14T17:55:45.831Z,3.77
2019-01-14T18:00:49.968Z,4.40
2019-01-14T18:05:54.111Z,5.37
2019-01-14T18:11:01.789Z,6.43
2019-01-14T18:16:04.396Z,4.00
2019-01-14T18:21:13.883Z,4.07
2019-01-14T18:26:14.988Z,3.60
2019-01-14T18:31:19.398Z,3.40
2019-01-14T18:36:23.852Z,3.30
2019-01-14T18:41:29.226Z,3.40
2019-01-14T18:46:33.692Z,3.87
2019-01-14T18:51:39.921Z,4.50
2019-01-14T18:56:44.793Z,4.83
2019-01-14T19:01:51.434Z,3.63
2019-01-14T19:06:56.089Z,3.70
2019-01-14T19:12:00.545Z,4.03
2019-01-14T19:17:05.231Z,3.47
2019-01-14T19:22:10.385Z,4.33
2019-01-14T19:27:16.560Z,4.10
2019-01-14T19:32:20.973Z,4.62
2019-01-14T19:37:25.401Z,4.40
2019-01-14T19:42:29.885Z,4.67
2019-01-14T19:47:34.393Z,4.40
2019-01-14T19:52:38.973Z,4.00
2019-01-14T19:57:43.257Z,3.87
2019-01-14T20:02:51.821Z,4.00
2019-01-14T20:07:56.070Z,4.70
2019-01-14T20:13:00.337Z,4.67
2019-01-14T20:18:04.758Z,4.67
2019-01-14T20:23:08.975Z,5.30
2019-01-14T20:28:13.094Z,5.50
2019-01-14T20:33:19.666Z,5.90
2019-01-14T20:38:23.392Z,6.03
2019-01-14T20:46:36.528Z,6.30
2019-01-14T20:51:39.646Z,5.17
2019-01-14T20:56:43.469Z,5.87
2019-01-14T21:01:47.254Z,5.73
2019-01-14T21:06:50.771Z,5.70
2019-01-14T21:11:54.214Z,5.67
2019-01-14T21:16:57.306Z,5.10
2019-01-14T21:22:00.390Z,5.17
2019-01-14T21:27:04.044Z,4.90
2019-01-14T21:32:07.712Z,5.57
2019-01-14T21:37:10.790Z,5.12
2019-01-14T21:42:14.941Z,4.40
2019-01-14T21:47:18.603Z,4.47
2019-01-14T21:52:21.945Z,4.93
2019-01-14T21:57:25.276Z,5.07
2019-01-14T22:02:28.384Z,4.63
2019-01-14T22:07:32.054Z,4.53
2019-01-14T22:12:35.491Z,4.40
2019-01-14T22:17:38.900Z,4.60
2019-01-14T22:22:42.055Z,3.53
2019-01-14T22:27:45.457Z,3.97
2019-01-14T22:32:48.861Z,4.40
2019-01-14T22:37:52.309Z,5.23
2019-01-14T22:42:55.715Z,5.37
2019-01-14T22:47:58.800Z,5.53
2019-01-14T22:53:02.305Z,6.63
2019-01-14T22:58:05.741Z,7.73
2019-01-14T23:03:09.154Z,7.15
2019-01-14T23:08:13.223Z,7.50
2019-01-14T23:13:16.957Z,7.53
2019-01-14T23:18:20.394Z,7.17
2019-01-14T23:23:23.799Z,7.83
2019-01-14T23:28:27.746Z,7.50
2019-01-14T23:33:31.171Z,8.20
2019-01-14T23:38:34.603Z,8.20
2019-01-14T23:43:37.679Z,8.30
2019-01-14T23:48:41.093Z,8.40
2019-01-14T23:53:44.517Z,7.97
2019-01-14T23:58:47.596Z,8.43
